createdAt,value
2019-02-25T00:00:54.278Z,1007.47
2019-02-25T00:01:54.222Z,1007.42
2019-02-25T00:02:54.151Z,1007.43
2019-02-25T00:03:54.068Z,1007.47
2019-02-25T00:04:53.996Z,1007.45
2019-02-25T00:05:53.921Z,1007.44
2019-02-25T00:06:53.887Z,1007.48
2019-02-25T00:07:53.787Z,1007.49
2019-02-25T00:08:53.722Z,1007.44
2019-02-25T00:09:53.646Z,1007.47
2019-02-25T00:10:53.573Z,1007.44
2019-02-25T00:11:53.487Z,1007.45
2019-02-25T00:12:53.415Z,1007.41
2019-02-25T00:13:53.378Z,1007.44
2019-02-25T00:14:53.278Z,1007.43
2019-02-25T00:15:53.214Z,1007.43
2019-02-25T00:16:53.143Z,1007.42
2019-02-25T00:17:53.066Z,1007.43
2019-02-25T00:18:52.984Z,1007.39
2019-02-25T00:19:52.926Z,1007.40
2019-02-25T00:20:52.852Z,1007.44
2019-02-25T00:21:52.780Z,1007.40
2019-02-25T00:22:52.715Z,1007.37
2019-02-25T00:23:52.629Z,1007.36
2019-02-25T00:24:52.562Z,1007.37
2019-02-25T00:25:52.481Z,1007.35
2019-02-25T00:26:52.414Z,1007.36
2019-02-25T00:27:52.346Z,1007.34
2019-02-25T00:28:52.284Z,1007.35
2019-02-25T00:29:52.207Z,1007.35
2019-02-25T00:30:52.133Z,1007.32
2019-02-25T00:31:52.053Z,1007.33
2019-02-25T00:32:51.979Z,1007.29
2019-02-25T00:33:51.912Z,1007.29
2019-02-25T00:34:51.844Z,1007.31
2019-02-25T00:35:51.768Z,1007.27
2019-02-25T00:36:51.690Z,1007.28
2019-02-25T00:37:51.614Z,1007.25
2019-02-25T00:38:51.555Z,1007.23
2019-02-25T00:39:51.485Z,1007.25
2019-02-25T00:40:51.412Z,1007.21
2019-02-25T00:41:51.353Z,1007.21
2019-02-25T00:42:51.265Z,1007.24
2019-02-25T00:43:51.180Z,1007.24
2019-02-25T00:44:51.109Z,1007.21
2019-02-25T00:45:51.044Z,1007.22
2019-02-25T00:46:50.961Z,1007.26
2019-02-25T00:47:50.914Z,1007.26
2019-02-25T00:48:50.830Z,1007.24
2019-02-25T00:49:50.747Z,1007.28
2019-02-25T00:50:50.680Z,1007.30
2019-02-25T00:51:50.613Z,1007.27
2019-02-25T00:52:50.536Z,1007.25
2019-02-25T00:53:50.475Z,1007.24
2019-02-25T00:54:50.398Z,1007.21
2019-02-25T00:55:50.307Z,1007.18
2019-02-25T00:56:50.239Z,1007.19
2019-02-25T00:57:50.190Z,1007.18
2019-02-25T00:58:50.104Z,1007.17
2019-02-25T00:59:50.021Z,1007.14
2019-02-25T01:00:49.947Z,1007.08
2019-02-25T01:01:49.877Z,1007.12
2019-02-25T01:02:49.802Z,1007.06
2019-02-25T01:03:49.744Z,1007.06
2019-02-25T01:04:49.669Z,1007.08
2019-02-25T01:05:49.587Z,1007.03
2019-02-25T01:06:49.513Z,1007.04
2019-02-25T01:07:49.452Z,1007.04
2019-02-25T01:08:49.381Z,1007.00
2019-02-25T01:09:49.308Z,1007.02
2019-02-25T01:10:49.236Z,1006.99
2019-02-25T01:11:49.155Z,1007.04
2019-02-25T01:12:49.081Z,1007.01
2019-02-25T01:13:49.005Z,1007.02
2019-02-25T01:14:48.933Z,1006.97
2019-02-25T01:15:48.869Z,1007.01
2019-02-25T01:16:48.796Z,1006.99
2019-02-25T01:17:48.727Z,1006.96
2019-02-25T01:18:48.650Z,1006.97
2019-02-25T01:19:48.569Z,1006.95
2019-02-25T01:20:48.494Z,1006.96
2019-02-25T01:21:48.437Z,1006.98
2019-02-25T01:22:48.361Z,1006.99
2019-02-25T01:23:48.963Z,1006.97
2019-02-25T01:24:48.212Z,1006.98
2019-02-25T01:25:48.127Z,1006.97
2019-02-25T01:26:48.055Z,1006.98
2019-02-25T01:27:47.996Z,1006.94
2019-02-25T01:28:47.925Z,1006.95
2019-02-25T01:29:47.850Z,1006.92
2019-02-25T01:30:47.774Z,1006.98
2019-02-25T01:31:47.690Z,1006.98
2019-02-25T01:32:47.617Z,1006.95
2019-02-25T01:33:47.547Z,1007.01
2019-02-25T01:34:47.480Z,1007.01
2019-02-25T01:35:47.419Z,1007.00
2019-02-25T01:36:47.342Z,1006.99
2019-02-25T01:37:47.255Z,1006.97
2019-02-25T01:38:47.192Z,1006.95
2019-02-25T01:39:47.121Z,1006.95
2019-02-25T01:40:47.045Z,1006.97
2019-02-25T01:41:46.974Z,1006.96
2019-02-25T01:42:46.903Z,1006.94
2019-02-25T01:43:46.824Z,1006.97
2019-02-25T01:44:46.743Z,1006.97
2019-02-25T01:45:46.670Z,1006.96
2019-02-25T01:46:46.602Z,1006.99
2019-02-25T01:47:46.536Z,1006.97
2019-02-25T01:48:46.460Z,1006.95
2019-02-25T01:49:46.388Z,1006.95
2019-02-25T01:50:46.314Z,1006.93
2019-02-25T01:51:46.233Z,1006.91
2019-02-25T01:52:46.162Z,1006.93
2019-02-25T01:53:46.097Z,1006.92
2019-02-25T01:54:46.035Z,1006.91
2019-02-25T01:55:45.940Z,1006.92
2019-02-25T01:56:45.867Z,1006.89
2019-02-25T01:57:45.794Z,1006.92
2019-02-25T01:58:45.722Z,1006.93
2019-02-25T01:59:45.666Z,1006.91
2019-02-25T02:00:45.588Z,1006.90
2019-02-25T02:01:45.503Z,1006.87
2019-02-25T02:02:45.433Z,1006.86
2019-02-25T02:03:45.367Z,1006.92
2019-02-25T02:04:45.295Z,1006.88
2019-02-25T02:05:45.223Z,1006.85
2019-02-25T02:06:45.150Z,1006.84
2019-02-25T02:07:45.068Z,1006.83
2019-02-25T02:08:44.993Z,1006.86
2019-02-25T02:09:44.934Z,1006.81
2019-02-25T02:10:44.861Z,1006.82
2019-02-25T02:11:44.775Z,1006.78
2019-02-25T02:12:44.701Z,1006.75
2019-02-25T02:13:44.627Z,1006.72
2019-02-25T02:14:44.557Z,1006.69
2019-02-25T02:15:44.495Z,1006.66
2019-02-25T02:16:44.421Z,1006.71
2019-02-25T02:17:44.352Z,1006.68
2019-02-25T02:18:44.272Z,1006.64
2019-02-25T02:19:44.191Z,1006.63
2019-02-25T02:20:44.115Z,1006.62
2019-02-25T02:21:44.045Z,1006.61
2019-02-25T02:22:43.970Z,1006.62
2019-02-25T02:23:43.915Z,1006.63
2019-02-25T02:24:43.835Z,1006.65
2019-02-25T02:25:43.751Z,1006.68
2019-02-25T02:26:43.679Z,1006.67
2019-02-25T02:27:43.619Z,1006.63
2019-02-25T02:28:43.543Z,1006.70
2019-02-25T02:29:43.485Z,1006.67
2019-02-25T02:30:43.400Z,1006.71
2019-02-25T02:31:43.314Z,1006.68
2019-02-25T02:32:43.238Z,1006.64
2019-02-25T02:33:43.169Z,1006.67
2019-02-25T02:34:43.094Z,1006.64
2019-02-25T02:35:43.034Z,1006.64
2019-02-25T02:36:42.959Z,1006.61
2019-02-25T02:37:42.894Z,1006.62
2019-02-25T02:38:42.814Z,1006.62
2019-02-25T02:39:42.729Z,1006.64
2019-02-25T02:40:42.653Z,1006.65
2019-02-25T02:41:42.591Z,1006.63
2019-02-25T02:42:42.521Z,1006.63
2019-02-25T02:43:42.455Z,1006.63
2019-02-25T02:44:42.362Z,1006.62
2019-02-25T02:45:42.287Z,1006.62
2019-02-25T02:46:42.215Z,1006.62
2019-02-25T02:47:42.149Z,1006.62
2019-02-25T02:48:42.078Z,1006.60
2019-02-25T02:49:42.011Z,1006.62
2019-02-25T02:50:41.939Z,1006.63
2019-02-25T02:51:41.847Z,1006.62
2019-02-25T02:52:41.775Z,1006.57
2019-02-25T02:53:41.703Z,1006.57
2019-02-25T02:54:41.630Z,1006.55
2019-02-25T02:55:41.573Z,1006.53
2019-02-25T02:56:41.519Z,1006.55
2019-02-25T02:57:41.409Z,1006.56
2019-02-25T02:58:41.342Z,1006.56
2019-02-25T02:59:41.281Z,1006.54
2019-02-25T03:00:41.200Z,1006.56
2019-02-25T03:01:41.124Z,1006.57
2019-02-25T03:02:41.074Z,1006.59
2019-02-25T03:03:40.970Z,1006.60
2019-02-25T03:04:40.899Z,1006.59
2019-02-25T03:05:40.832Z,1006.61
2019-02-25T03:06:40.765Z,1006.62
2019-02-25T03:07:40.679Z,1006.63
2019-02-25T03:08:40.603Z,1006.64
2019-02-25T03:09:40.528Z,1006.61
2019-02-25T03:10:40.457Z,1006.61
2019-02-25T03:11:40.396Z,1006.60
2019-02-25T03:12:40.323Z,1006.61
2019-02-25T03:13:40.239Z,1006.57
2019-02-25T03:14:40.166Z,1006.57
2019-02-25T03:15:40.100Z,1006.57
2019-02-25T03:16:40.030Z,1006.60
2019-02-25T03:17:39.957Z,1006.59
2019-02-25T03:18:39.880Z,1006.55
2019-02-25T03:19:39.829Z,1006.56
2019-02-25T03:20:39.724Z,1006.53
2019-02-25T03:21:39.651Z,1006.56
2019-02-25T03:22:39.579Z,1006.53
2019-02-25T03:23:39.514Z,1006.54
2019-02-25T03:24:39.461Z,1006.55
2019-02-25T03:25:39.367Z,1006.53
2019-02-25T03:26:39.294Z,1006.57
2019-02-25T03:27:39.207Z,1006.57
2019-02-25T03:28:39.133Z,1006.58
2019-02-25T03:29:39.076Z,1006.60
2019-02-25T03:30:39.004Z,1006.60
2019-02-25T03:31:38.915Z,1006.62
2019-02-25T03:32:38.854Z,1006.59
2019-02-25T03:33:38.809Z,1006.56
2019-02-25T03:34:38.697Z,1006.58
2019-02-25T03:35:38.634Z,1006.62
2019-02-25T03:36:38.560Z,1006.64
2019-02-25T03:37:38.472Z,1006.61
2019-02-25T03:38:38.399Z,1006.63
2019-02-25T03:39:38.343Z,1006.66
2019-02-25T03:40:38.281Z,1006.64
2019-02-25T03:41:38.189Z,1006.64
2019-02-25T03:42:38.119Z,1006.64
2019-02-25T03:43:38.031Z,1006.62
2019-02-25T03:44:37.974Z,1006.60
2019-02-25T03:45:37.895Z,1006.60
2019-02-25T03:46:37.838Z,1006.60
2019-02-25T03:47:37.733Z,1006.61
2019-02-25T03:48:37.665Z,1006.59
2019-02-25T03:49:37.592Z,1006.63
2019-02-25T03:50:37.515Z,1006.62
2019-02-25T03:51:37.455Z,1006.62
2019-02-25T03:52:37.375Z,1006.59
2019-02-25T03:53:37.313Z,1006.60
2019-02-25T03:54:37.250Z,1006.58
2019-02-25T03:55:37.147Z,1006.65
2019-02-25T03:56:37.070Z,1006.61
2019-02-25T03:57:37.003Z,1006.63
2019-02-25T03:58:36.923Z,1006.61
2019-02-25T03:59:36.866Z,1006.64
2019-02-25T04:00:36.785Z,1006.61
2019-02-25T04:01:36.702Z,1006.61
2019-02-25T04:02:36.634Z,1006.59
2019-02-25T04:03:36.585Z,1006.57
2019-02-25T04:04:36.497Z,1006.60
2019-02-25T04:05:36.431Z,1006.58
2019-02-25T04:06:36.350Z,1006.55
2019-02-25T04:07:36.266Z,1006.60
2019-02-25T04:08:36.191Z,1006.60
2019-02-25T04:09:36.127Z,1006.60
2019-02-25T04:10:36.050Z,1006.65
2019-02-25T04:11:36.006Z,1006.65
2019-02-25T04:12:35.896Z,1006.65
2019-02-25T04:13:35.823Z,1006.59
2019-02-25T04:14:35.784Z,1006.63
2019-02-25T04:15:35.690Z,1006.61
2019-02-25T04:16:35.609Z,1006.61
2019-02-25T04:17:35.536Z,1006.61
2019-02-25T04:18:35.461Z,1006.57
2019-02-25T04:19:35.393Z,1006.59
2019-02-25T04:20:35.322Z,1006.63
2019-02-25T04:21:35.243Z,1006.62
2019-02-25T04:22:35.177Z,1006.63
2019-02-25T04:23:35.082Z,1006.59
2019-02-25T04:24:35.010Z,1006.62
2019-02-25T04:25:34.935Z,1006.57
2019-02-25T04:26:34.865Z,1006.57
2019-02-25T04:27:34.807Z,1006.60
2019-02-25T04:28:34.725Z,1006.62
2019-02-25T04:29:34.649Z,1006.62
2019-02-25T04:30:34.579Z,1006.62
2019-02-25T04:31:34.500Z,1006.63
2019-02-25T04:32:34.425Z,1006.59
2019-02-25T04:33:34.359Z,1006.59
2019-02-25T04:34:34.286Z,1006.59
2019-02-25T04:35:34.202Z,1006.59
2019-02-25T04:36:34.130Z,1006.59
2019-02-25T04:37:34.051Z,1006.57
2019-02-25T04:38:33.976Z,1006.53
2019-02-25T04:39:33.917Z,1006.57
2019-02-25T04:40:33.848Z,1006.52
2019-02-25T04:41:33.763Z,1006.51
2019-02-25T04:42:33.693Z,1006.48
2019-02-25T04:43:33.612Z,1006.51
2019-02-25T04:44:33.534Z,1006.52
2019-02-25T04:45:33.462Z,1006.53
2019-02-25T04:46:33.385Z,1006.50
2019-02-25T04:47:33.325Z,1006.52
2019-02-25T04:48:33.292Z,1006.50
2019-02-25T04:49:33.184Z,1006.52
2019-02-25T04:50:33.091Z,1006.54
2019-02-25T04:51:33.031Z,1006.53
2019-02-25T04:52:32.965Z,1006.56
2019-02-25T04:53:32.879Z,1006.56
2019-02-25T04:54:32.809Z,1006.59
2019-02-25T04:55:32.719Z,1006.56
2019-02-25T04:56:32.650Z,1006.61
2019-02-25T04:57:32.573Z,1006.63
2019-02-25T04:58:32.496Z,1006.59
2019-02-25T04:59:32.440Z,1006.57
2019-02-25T05:00:32.363Z,1006.57
2019-02-25T05:01:32.294Z,1006.61
2019-02-25T05:02:32.215Z,1006.62
2019-02-25T05:03:32.130Z,1006.59
2019-02-25T05:04:32.055Z,1006.63
2019-02-25T05:05:31.991Z,1006.64
2019-02-25T05:06:31.919Z,1006.64
2019-02-25T05:07:31.853Z,1006.65
2019-02-25T05:08:31.757Z,1006.61
2019-02-25T05:09:31.684Z,1006.65
2019-02-25T05:10:31.607Z,1006.59
2019-02-25T05:11:31.560Z,1006.62
2019-02-25T05:12:31.475Z,1006.62
2019-02-25T05:13:31.390Z,1006.64
2019-02-25T05:14:31.374Z,1006.66
2019-02-25T05:15:31.247Z,1006.62
2019-02-25T05:16:31.179Z,1006.61
2019-02-25T05:17:31.104Z,1006.62
2019-02-25T05:18:31.036Z,1006.60
2019-02-25T05:19:30.951Z,1006.63
2019-02-25T05:20:30.877Z,1006.60
2019-02-25T05:21:30.811Z,1006.62
2019-02-25T05:22:30.740Z,1006.62
2019-02-25T05:23:30.664Z,1006.59
2019-02-25T05:24:30.574Z,1006.58
2019-02-25T05:25:30.502Z,1006.57
2019-02-25T05:26:30.425Z,1006.52
2019-02-25T05:27:30.366Z,1006.57
2019-02-25T05:28:30.293Z,1006.59
2019-02-25T05:29:30.221Z,1006.59
2019-02-25T05:30:30.144Z,1006.60
2019-02-25T05:31:30.078Z,1006.61
2019-02-25T05:32:30.003Z,1006.60
2019-02-25T05:33:29.910Z,1006.55
2019-02-25T05:34:29.834Z,1006.59
2019-02-25T05:35:29.779Z,1006.65
2019-02-25T05:36:29.711Z,1006.59
2019-02-25T05:37:29.612Z,1006.63
2019-02-25T05:38:29.539Z,1006.63
2019-02-25T05:39:29.480Z,1006.61
2019-02-25T05:40:29.405Z,1006.64
2019-02-25T05:41:29.329Z,1006.62
2019-02-25T05:42:29.255Z,1006.64
2019-02-25T05:43:29.168Z,1006.61
2019-02-25T05:44:29.099Z,1006.64
2019-02-25T05:45:29.064Z,1006.62
2019-02-25T05:46:28.947Z,1006.59
2019-02-25T05:47:28.881Z,1006.58
2019-02-25T05:48:28.810Z,1006.59
2019-02-25T05:49:28.737Z,1006.57
2019-02-25T05:50:28.665Z,1006.57
2019-02-25T05:51:28.572Z,1006.56
2019-02-25T05:52:28.501Z,1006.53
2019-02-25T05:53:28.436Z,1006.54
2019-02-25T05:54:28.388Z,1006.58
2019-02-25T05:55:28.284Z,1006.57
2019-02-25T05:56:28.208Z,1006.56
2019-02-25T05:57:28.132Z,1006.52
2019-02-25T05:58:28.061Z,1006.56
2019-02-25T05:59:28.002Z,1006.51
2019-02-25T06:00:27.917Z,1006.55
2019-02-25T06:01:27.847Z,1006.54
2019-02-25T06:02:27.781Z,1006.50
2019-02-25T06:03:27.689Z,1006.53
2019-02-25T06:04:27.618Z,1006.50
2019-02-25T06:05:27.553Z,1006.54
2019-02-25T06:06:27.466Z,1006.53
2019-02-25T06:07:27.411Z,1006.50
2019-02-25T06:08:27.330Z,1006.50
2019-02-25T06:09:27.246Z,1006.46
2019-02-25T06:10:27.190Z,1006.47
2019-02-25T06:11:27.131Z,1006.46
2019-02-25T06:12:27.035Z,1006.47
2019-02-25T06:13:26.960Z,1006.47
2019-02-25T06:14:26.891Z,1006.50
2019-02-25T06:15:26.799Z,1006.50
2019-02-25T06:16:26.730Z,1006.51
2019-02-25T06:17:26.665Z,1006.52
2019-02-25T06:18:26.593Z,1006.50
2019-02-25T06:19:26.508Z,1006.51
2019-02-25T06:20:26.442Z,1006.53
2019-02-25T06:21:26.367Z,1006.55
2019-02-25T06:22:26.284Z,1006.54
2019-02-25T06:23:26.221Z,1006.54
2019-02-25T06:24:26.146Z,1006.54
2019-02-25T06:25:26.070Z,1006.55
2019-02-25T06:26:25.988Z,1006.56
2019-02-25T06:27:30.585Z,1006.56
2019-02-25T06:28:25.852Z,1006.56
2019-02-25T06:29:25.779Z,1006.55
2019-02-25T06:30:25.702Z,1006.56
2019-02-25T06:31:25.627Z,1006.58
2019-02-25T06:32:25.574Z,1006.52
2019-02-25T06:33:25.470Z,1006.55
2019-02-25T06:34:25.397Z,1006.53
2019-02-25T06:35:25.354Z,1006.53
2019-02-25T06:36:25.263Z,1006.51
2019-02-25T06:37:25.187Z,1006.54
2019-02-25T06:38:25.120Z,1006.57
2019-02-25T06:39:25.029Z,1006.52
2019-02-25T06:40:24.953Z,1006.55
2019-02-25T06:41:24.901Z,1006.58
2019-02-25T06:42:24.813Z,1006.57
2019-02-25T06:43:24.732Z,1006.65
2019-02-25T06:44:24.672Z,1006.59
2019-02-25T06:45:24.585Z,1006.63
2019-02-25T06:46:24.518Z,1006.64
2019-02-25T06:47:24.450Z,1006.67
2019-02-25T06:48:24.379Z,1006.68
2019-02-25T06:49:24.300Z,1006.70
2019-02-25T06:50:24.235Z,1006.73
2019-02-25T06:51:24.142Z,1006.67
2019-02-25T06:52:24.067Z,1006.71
2019-02-25T06:53:23.992Z,1006.65
2019-02-25T06:54:23.920Z,1006.69
2019-02-25T06:55:23.871Z,1006.67
2019-02-25T06:56:23.775Z,1006.70
2019-02-25T06:57:23.706Z,1006.68
2019-02-25T06:58:23.622Z,1006.72
2019-02-25T06:59:23.558Z,1006.76
2019-02-25T07:00:23.492Z,1006.71
2019-02-25T07:01:23.410Z,1006.73
2019-02-25T07:02:23.331Z,1006.75
2019-02-25T07:03:23.274Z,1006.77
2019-02-25T07:04:23.182Z,1006.78
2019-02-25T07:05:23.102Z,1006.81
2019-02-25T07:06:23.028Z,1006.81
2019-02-25T07:07:22.963Z,1006.80
2019-02-25T07:08:22.894Z,1006.80
2019-02-25T07:09:22.819Z,1006.84
2019-02-25T07:10:22.749Z,1006.87
2019-02-25T07:11:22.660Z,1006.89
2019-02-25T07:12:22.584Z,1006.96
2019-02-25T07:13:22.523Z,1006.95
2019-02-25T07:14:22.454Z,1006.95
2019-02-25T07:15:22.368Z,1006.95
2019-02-25T07:16:22.291Z,1006.97
2019-02-25T07:17:22.810Z,1006.94
2019-02-25T07:18:22.144Z,1006.96
2019-02-25T07:19:22.128Z,1006.95
2019-02-25T07:20:22.000Z,1006.94
2019-02-25T07:21:21.922Z,1006.97
2019-02-25T07:22:21.844Z,1006.99
2019-02-25T07:23:21.795Z,1007.01
2019-02-25T07:24:21.713Z,1007.05
2019-02-25T07:25:21.639Z,1007.06
2019-02-25T07:26:21.561Z,1007.06
2019-02-25T07:27:21.486Z,1007.09
2019-02-25T07:28:21.400Z,1007.04
2019-02-25T07:29:21.344Z,1007.00
2019-02-25T07:30:21.265Z,1007.08
2019-02-25T07:31:21.176Z,1007.06
2019-02-25T07:32:21.126Z,1007.05
2019-02-25T07:33:21.061Z,1007.08
2019-02-25T07:34:20.956Z,1007.09
2019-02-25T07:35:20.893Z,1007.11
2019-02-25T07:36:20.824Z,1007.12
2019-02-25T07:37:20.758Z,1007.15
2019-02-25T07:38:20.671Z,1007.15
2019-02-25T07:39:20.592Z,1007.16
2019-02-25T07:40:20.518Z,1007.14
2019-02-25T07:41:20.440Z,1007.20
2019-02-25T07:42:20.368Z,1007.24
2019-02-25T07:43:20.306Z,1007.29
2019-02-25T07:44:20.229Z,1007.28
2019-02-25T07:45:20.152Z,1007.31
2019-02-25T07:46:20.072Z,1007.29
2019-02-25T07:47:20.013Z,1007.25
2019-02-25T07:48:19.939Z,1007.27
2019-02-25T07:49:19.866Z,1007.27
2019-02-25T07:50:19.840Z,1007.31
2019-02-25T07:51:19.704Z,1007.28
2019-02-25T07:52:19.632Z,1007.33
2019-02-25T07:53:19.622Z,1007.37
2019-02-25T07:54:19.499Z,1007.37
2019-02-25T07:55:19.416Z,1007.39
2019-02-25T07:56:19.339Z,1007.43
2019-02-25T07:57:19.266Z,1007.43
2019-02-25T07:58:19.191Z,1007.46
2019-02-25T07:59:19.128Z,1007.47
2019-02-25T08:00:19.069Z,1007.41
2019-02-25T08:01:18.972Z,1007.44
2019-02-25T08:02:18.902Z,1007.43
2019-02-25T08:03:18.840Z,1007.45
2019-02-25T08:04:18.767Z,1007.46
2019-02-25T08:05:18.695Z,1007.45
2019-02-25T08:06:18.624Z,1007.48
2019-02-25T08:07:18.538Z,1007.45
2019-02-25T08:08:18.465Z,1007.48
2019-02-25T08:09:18.412Z,1007.47
2019-02-25T08:10:18.318Z,1007.50
2019-02-25T08:11:18.259Z,1007.52
2019-02-25T08:12:18.186Z,1007.53
2019-02-25T08:13:18.119Z,1007.60
2019-02-25T08:14:18.067Z,1007.62
2019-02-25T08:15:17.957Z,1007.61
2019-02-25T08:16:17.884Z,1007.61
2019-02-25T08:17:17.834Z,1007.65
2019-02-25T08:18:17.752Z,1007.58
2019-02-25T08:19:17.671Z,1007.61
2019-02-25T08:20:17.595Z,1007.63
2019-02-25T08:21:17.522Z,1007.62
2019-02-25T08:22:17.457Z,1007.63
2019-02-25T08:23:17.397Z,1007.69
2019-02-25T08:24:17.323Z,1007.66
2019-02-25T08:25:17.236Z,1007.67
2019-02-25T08:26:17.161Z,1007.70
2019-02-25T08:27:17.101Z,1007.75
2019-02-25T08:28:17.033Z,1007.72
2019-02-25T08:29:16.987Z,1007.76
2019-02-25T08:30:16.885Z,1007.79
2019-02-25T08:31:16.801Z,1007.79
2019-02-25T08:32:16.724Z,1007.78
2019-02-25T08:33:16.672Z,1007.80
2019-02-25T08:34:18.859Z,1007.81
2019-02-25T08:35:16.519Z,1007.82
2019-02-25T08:36:16.441Z,1007.83
2019-02-25T08:37:16.368Z,1007.85
2019-02-25T08:38:16.298Z,1007.89
2019-02-25T08:39:16.239Z,1007.91
2019-02-25T08:40:16.166Z,1007.92
2019-02-25T08:41:16.093Z,1007.94
2019-02-25T08:42:16.058Z,1007.96
2019-02-25T08:43:15.934Z,1007.92
2019-02-25T08:44:15.867Z,1007.96
2019-02-25T08:45:15.794Z,1007.90
2019-02-25T08:46:15.724Z,1007.93
2019-02-25T08:47:15.662Z,1007.94
2019-02-25T08:48:15.594Z,1007.96
2019-02-25T08:49:15.511Z,1007.93
2019-02-25T08:50:15.441Z,1007.95
2019-02-25T08:51:15.379Z,1007.89
2019-02-25T08:52:15.307Z,1007.91
2019-02-25T08:53:15.227Z,1007.90
2019-02-25T08:54:15.163Z,1007.87
2019-02-25T08:55:15.083Z,1007.87
2019-02-25T08:56:15.011Z,1007.86
2019-02-25T08:57:14.935Z,1007.87
2019-02-25T08:58:14.866Z,1007.87
2019-02-25T08:59:14.806Z,1007.88
2019-02-25T09:00:14.735Z,1007.86
2019-02-25T09:01:15.454Z,1007.85
2019-02-25T09:02:14.590Z,1007.85
2019-02-25T09:03:14.511Z,1007.80
2019-02-25T09:04:14.438Z,1007.80
2019-02-25T09:05:14.380Z,1007.80
2019-02-25T09:06:14.306Z,1007.78
2019-02-25T09:07:14.227Z,1007.80
2019-02-25T09:08:14.154Z,1007.79
2019-02-25T09:09:14.083Z,1007.82
2019-02-25T09:10:14.010Z,1007.79
2019-02-25T09:11:14.558Z,1007.79
2019-02-25T09:12:13.885Z,1007.85
2019-02-25T09:13:13.806Z,1007.83
2019-02-25T09:14:13.742Z,1007.82
2019-02-25T09:15:13.704Z,1007.85
2019-02-25T09:16:13.587Z,1007.88
2019-02-25T09:17:13.512Z,1007.89
2019-02-25T09:18:13.444Z,1007.86
2019-02-25T09:19:13.386Z,1007.92
2019-02-25T09:20:13.316Z,1007.93
2019-02-25T09:21:13.233Z,1007.89
2019-02-25T09:22:13.165Z,1007.92
2019-02-25T09:23:13.105Z,1007.95
2019-02-25T09:24:13.039Z,1007.94
2019-02-25T09:25:12.960Z,1007.91
2019-02-25T09:26:12.890Z,1007.90
2019-02-25T09:27:12.807Z,1007.86
2019-02-25T09:28:12.734Z,1007.88
2019-02-25T09:29:12.680Z,1007.92
2019-02-25T09:30:12.610Z,1007.89
2019-02-25T09:31:12.529Z,1007.93
2019-02-25T09:32:12.453Z,1007.89
2019-02-25T09:33:12.391Z,1007.90
2019-02-25T09:34:12.312Z,1007.90
2019-02-25T09:35:12.255Z,1007.89
2019-02-25T09:36:12.227Z,1007.89
2019-02-25T09:37:12.152Z,1007.89
2019-02-25T09:38:12.026Z,1007.91
2019-02-25T09:39:11.974Z,1007.91
2019-02-25T09:40:11.899Z,1007.90
2019-02-25T09:41:11.831Z,1007.89
2019-02-25T09:42:11.760Z,1007.89
2019-02-25T09:43:11.677Z,1007.87
2019-02-25T09:44:11.608Z,1007.86
2019-02-25T09:45:11.539Z,1007.85
2019-02-25T09:46:11.467Z,1007.87
2019-02-25T09:47:11.409Z,1007.82
2019-02-25T09:48:11.339Z,1007.81
2019-02-25T09:49:11.275Z,1007.75
2019-02-25T09:50:11.195Z,1007.78
2019-02-25T09:51:11.435Z,1007.75
2019-02-25T09:52:11.052Z,1007.74
2019-02-25T09:53:10.990Z,1007.75
2019-02-25T09:54:10.950Z,1007.73
2019-02-25T09:55:10.835Z,1007.71
2019-02-25T09:56:10.767Z,1007.75
2019-02-25T09:57:10.703Z,1007.79
2019-02-25T09:58:10.629Z,1007.82
2019-02-25T09:59:10.570Z,1007.81
2019-02-25T10:00:10.506Z,1007.74
2019-02-25T10:01:10.429Z,1007.69
2019-02-25T10:02:10.364Z,1007.72
2019-02-25T10:03:10.277Z,1007.72
2019-02-25T10:04:10.210Z,1007.72
2019-02-25T10:05:10.137Z,1007.73
2019-02-25T10:06:10.069Z,1007.72
2019-02-25T10:07:10.011Z,1007.74
2019-02-25T10:08:09.941Z,1007.74
2019-02-25T10:09:09.863Z,1007.73
2019-02-25T10:10:09.790Z,1007.70
2019-02-25T10:11:09.740Z,1007.66
2019-02-25T10:12:09.694Z,1007.66
2019-02-25T10:13:09.597Z,1007.67
2019-02-25T10:14:09.536Z,1007.62
2019-02-25T10:15:09.454Z,1007.63
2019-02-25T10:16:09.375Z,1007.63
2019-02-25T10:17:09.333Z,1007.68
2019-02-25T10:18:09.232Z,1007.69
2019-02-25T10:19:09.179Z,1007.65
2019-02-25T10:20:09.106Z,1007.68
2019-02-25T10:21:09.048Z,1007.66
2019-02-25T10:22:08.972Z,1007.69
2019-02-25T10:23:08.893Z,1007.67
2019-02-25T10:24:08.816Z,1007.68
2019-02-25T10:25:08.757Z,1007.66
2019-02-25T10:26:08.689Z,1007.65
2019-02-25T10:27:08.611Z,1007.64
2019-02-25T10:28:08.545Z,1007.63
2019-02-25T10:29:08.475Z,1007.63
2019-02-25T10:30:08.407Z,1007.63
2019-02-25T10:31:08.347Z,1007.62
2019-02-25T10:32:08.281Z,1007.59
2019-02-25T10:33:08.195Z,1007.57
2019-02-25T10:34:08.163Z,1007.55
2019-02-25T10:35:09.383Z,1007.53
2019-02-25T10:36:07.997Z,1007.55
2019-02-25T10:37:09.037Z,1007.52
2019-02-25T10:38:07.864Z,1007.52
2019-02-25T10:39:09.089Z,1007.53
2019-02-25T10:40:07.711Z,1007.54
2019-02-25T10:41:07.654Z,1007.51
2019-02-25T10:42:07.580Z,1007.51
2019-02-25T10:43:07.517Z,1007.48
2019-02-25T10:44:08.470Z,1007.42
2019-02-25T10:45:08.929Z,1007.39
2019-02-25T10:46:09.062Z,1007.37
2019-02-25T10:47:07.241Z,1007.41
2019-02-25T10:48:07.175Z,1007.34
2019-02-25T10:49:11.583Z,1007.33
2019-02-25T10:50:07.464Z,1007.32
2019-02-25T10:51:07.645Z,1007.29
2019-02-25T10:52:08.720Z,1007.30
2019-02-25T10:53:06.835Z,1007.31
2019-02-25T10:54:06.751Z,1007.26
2019-02-25T10:55:06.692Z,1007.30
2019-02-25T10:56:06.620Z,1007.28
2019-02-25T10:57:06.540Z,1007.29
2019-02-25T10:58:06.473Z,1007.26
2019-02-25T10:59:08.103Z,1007.29
2019-02-25T11:00:07.493Z,1007.33
2019-02-25T11:01:08.551Z,1007.23
2019-02-25T11:02:06.205Z,1007.24
2019-02-25T11:03:06.126Z,1007.18
2019-02-25T11:04:06.057Z,1007.20
2019-02-25T11:05:05.989Z,1007.18
2019-02-25T11:06:05.934Z,1007.17
2019-02-25T11:07:07.844Z,1007.16
2019-02-25T11:08:07.379Z,1007.20
2019-02-25T11:09:07.016Z,1007.16
2019-02-25T11:10:05.652Z,1007.14
2019-02-25T11:11:21.042Z,1007.14
2019-02-25T11:12:05.518Z,1007.14
2019-02-25T11:13:05.483Z,1007.13
2019-02-25T11:14:07.115Z,1007.09
2019-02-25T11:15:07.406Z,1007.07
2019-02-25T11:16:05.231Z,1007.09
2019-02-25T11:17:05.166Z,1007.04
2019-02-25T11:18:05.107Z,1007.05
2019-02-25T11:19:05.038Z,1007.04
2019-02-25T11:20:05.700Z,1007.03
2019-02-25T11:21:06.248Z,1007.05
2019-02-25T11:22:05.523Z,1007.02
2019-02-25T11:23:04.799Z,1007.03
2019-02-25T11:24:04.682Z,1007.00
2019-02-25T11:25:04.611Z,1006.97
2019-02-25T11:26:04.551Z,1006.95
2019-02-25T11:27:05.174Z,1006.89
2019-02-25T11:28:05.393Z,1006.89
2019-02-25T11:29:05.559Z,1006.83
2019-02-25T11:30:04.306Z,1006.86
2019-02-25T11:31:04.207Z,1006.83
2019-02-25T11:32:04.138Z,1006.81
2019-02-25T11:33:04.157Z,1006.79
2019-02-25T11:34:05.711Z,1006.74
2019-02-25T11:35:04.500Z,1006.79
2019-02-25T11:36:03.871Z,1006.76
2019-02-25T11:37:03.796Z,1006.78
2019-02-25T11:38:03.749Z,1006.76
2019-02-25T11:39:04.587Z,1006.73
2019-02-25T11:40:04.389Z,1006.75
2019-02-25T11:41:04.804Z,1006.71
2019-02-25T11:42:05.538Z,1006.71
2019-02-25T11:43:03.373Z,1006.67
2019-02-25T11:44:03.300Z,1006.64
2019-02-25T11:45:04.533Z,1006.66
2019-02-25T11:46:03.166Z,1006.57
2019-02-25T11:47:03.102Z,1006.62
2019-02-25T11:48:03.032Z,1006.58
2019-02-25T11:49:02.953Z,1006.55
2019-02-25T11:50:02.877Z,1006.56
2019-02-25T11:51:02.834Z,1006.53
2019-02-25T11:52:02.755Z,1006.46
2019-02-25T11:53:02.669Z,1006.42
2019-02-25T11:54:02.617Z,1006.41
2019-02-25T11:55:02.561Z,1006.38
2019-02-25T11:56:02.475Z,1006.38
2019-02-25T11:57:02.403Z,1006.33
2019-02-25T11:58:02.335Z,1006.33
2019-02-25T11:59:02.254Z,1006.32
2019-02-25T12:00:02.197Z,1006.21
2019-02-25T12:01:02.123Z,1006.22
2019-02-25T12:02:02.049Z,1006.21
2019-02-25T12:03:01.975Z,1006.20
2019-02-25T12:04:01.921Z,1006.20
2019-02-25T12:05:01.841Z,1006.14